createdAt,value
2022-11-09T00:00:50.834Z,980.6
2022-11-09T00:02:52.023Z,980.7
2022-11-09T00:04:53.153Z,980.7
2022-11-09T00:08:56.004Z,980.7
2022-11-09T00:10:56.996Z,980.7
2022-11-09T00:12:58.862Z,980.6
2022-11-09T00:15:00.508Z,980.5
2022-11-09T00:17:01.710Z,980.6
2022-11-09T00:19:02.677Z,980.7
2022-11-09T00:21:04.402Z,980.6
2022-11-09T00:23:05.619Z,980.7
2022-11-09T00:25:06.689Z,980.5
2022-11-09T00:27:07.819Z,980.4
2022-11-09T00:29:09.104Z,980.5
2022-11-09T00:31:10.384Z,980.5
2022-11-09T00:35:12.837Z,980.5
2022-11-09T00:37:14.439Z,980.5
2022-11-09T00:38:15.613Z,980.6
2022-11-09T00:40:16.629Z,980.5
2022-11-09T00:42:17.797Z,980.5
2022-11-09T00:44:19.418Z,980.5
2022-11-09T00:46:20.663Z,980.5
2022-11-09T00:48:21.960Z,980.6
2022-11-09T00:50:23.740Z,980.7
2022-11-09T00:52:24.896Z,980.6
2022-11-09T00:54:26.419Z,980.6
2022-11-09T00:56:28.091Z,980.6
2022-11-09T00:58:29.630Z,980.5
2022-11-09T01:00:31.467Z,980.6
2022-11-09T01:02:32.839Z,980.6
2022-11-09T01:04:33.821Z,980.6
2022-11-09T01:06:35.373Z,980.6
2022-11-09T01:08:36.708Z,980.5
2022-11-09T01:10:37.756Z,980.6
2022-11-09T01:12:39.243Z,980.6
2022-11-09T01:14:41.093Z,980.6
2022-11-09T01:16:42.018Z,980.6
2022-11-09T01:18:43.764Z,980.5
2022-11-09T01:20:44.895Z,980.5
2022-11-09T01:22:46.746Z,980.5
2022-11-09T01:24:48.391Z,980.5
2022-11-09T01:28:51.457Z,980.6
2022-11-09T01:30:53.005Z,980.6
2022-11-09T01:32:54.819Z,980.6
2022-11-09T01:34:56.769Z,980.6
2022-11-09T01:38:59.417Z,980.6
2022-11-09T01:41:00.404Z,980.6
2022-11-09T01:43:02.203Z,980.6
2022-11-09T01:45:03.985Z,980.5
2022-11-09T01:47:05.389Z,980.5
2022-11-09T01:49:06.463Z,980.6
2022-11-09T01:51:08.061Z,980.9
2022-11-09T01:53:09.803Z,980.8
2022-11-09T01:55:11.641Z,980.9
2022-11-09T01:57:13.195Z,980.8
2022-11-09T01:59:14.265Z,980.9
2022-11-09T02:01:15.441Z,980.8
2022-11-09T02:03:17.293Z,980.8
2022-11-09T02:05:18.397Z,980.7
2022-11-09T02:07:19.656Z,980.8
2022-11-09T02:09:20.796Z,980.8
2022-11-09T02:11:22.303Z,980.8
2022-11-09T02:13:23.688Z,980.7
2022-11-09T02:15:25.122Z,980.7
2022-11-09T02:17:26.416Z,980.7
2022-11-09T02:19:28.168Z,980.7
2022-11-09T02:21:29.225Z,980.6
2022-11-09T02:23:30.622Z,980.7
2022-11-09T02:27:33.778Z,980.8
2022-11-09T02:29:35.451Z,980.8
2022-11-09T02:31:36.629Z,980.8
2022-11-09T02:33:37.885Z,980.9
2022-11-09T02:35:39.749Z,980.8
2022-11-09T02:37:41.457Z,980.8
2022-11-09T02:39:43.351Z,980.8
2022-11-09T02:41:45.104Z,980.8
2022-11-09T02:43:46.278Z,980.8
2022-11-09T02:45:47.790Z,980.9
2022-11-09T02:47:49.445Z,980.8
2022-11-09T02:49:51.130Z,980.7
2022-11-09T02:51:52.607Z,980.7
2022-11-09T02:53:53.973Z,980.6
2022-11-09T02:55:55.484Z,980.5
2022-11-09T02:57:57.408Z,980.5
2022-11-09T02:59:58.881Z,980.6
2022-11-09T03:01:59.926Z,980.6
2022-11-09T03:04:00.991Z,980.6
2022-11-09T03:06:02.570Z,980.7
2022-11-09T03:08:03.744Z,980.7
2022-11-09T03:10:04.934Z,980.8
2022-11-09T03:12:05.995Z,980.8
2022-11-09T03:14:07.702Z,980.7
2022-11-09T03:16:09.118Z,980.8
2022-11-09T03:18:10.183Z,980.7
2022-11-09T03:20:11.178Z,980.8
2022-11-09T03:22:12.565Z,980.6
2022-11-09T03:24:14.264Z,980.8
2022-11-09T03:26:15.789Z,980.8
2022-11-09T03:28:17.112Z,980.8
2022-11-09T03:30:18.328Z,980.9
2022-11-09T03:32:20.131Z,981
2022-11-09T03:34:21.992Z,981
2022-11-09T03:36:23.367Z,981
2022-11-09T03:38:24.980Z,981
2022-11-09T03:40:26.181Z,981
2022-11-09T03:42:27.327Z,981
2022-11-09T03:44:29.106Z,980.9
2022-11-09T03:46:30.753Z,981
2022-11-09T03:48:32.346Z,981
2022-11-09T03:52:34.816Z,981.1
2022-11-09T03:54:36.267Z,981.3
2022-11-09T03:56:37.589Z,981.2
2022-11-09T03:58:39.239Z,981.2
2022-11-09T04:00:40.954Z,981.3
2022-11-09T04:02:42.810Z,981.2
2022-11-09T04:04:43.961Z,981.3
2022-11-09T04:06:45.600Z,981.4
2022-11-09T04:08:51.226Z,981.4
2022-11-09T04:10:49.180Z,981.3
2022-11-09T04:12:50.862Z,981.4
2022-11-09T04:14:52.224Z,981.3
2022-11-09T04:16:53.680Z,981.4
2022-11-09T04:18:55.377Z,981.4
2022-11-09T04:20:56.848Z,981.4
2022-11-09T04:22:58.077Z,981.3
2022-11-09T04:24:59.298Z,981.3
2022-11-09T04:27:01.021Z,981.3
2022-11-09T04:29:02.637Z,981.2
2022-11-09T04:31:03.715Z,981.3
2022-11-09T04:35:07.066Z,981.2
2022-11-09T04:37:08.280Z,981.2
2022-11-09T04:39:09.780Z,981.1
2022-11-09T04:41:11.105Z,981.1
2022-11-09T04:45:13.708Z,981.2
2022-11-09T04:47:14.805Z,981.2
2022-11-09T04:49:16.123Z,981
2022-11-09T04:51:17.613Z,981.1
2022-11-09T04:53:18.952Z,981
2022-11-09T04:55:20.492Z,981
2022-11-09T04:57:21.827Z,981
2022-11-09T04:59:22.961Z,981
2022-11-09T05:01:23.929Z,981
2022-11-09T05:03:25.086Z,981
2022-11-09T05:05:26.965Z,981.1
2022-11-09T05:07:28.158Z,981.3
2022-11-09T05:09:30.058Z,981.3
2022-11-09T05:11:31.434Z,981.2
2022-11-09T05:13:32.900Z,981.3
2022-11-09T05:15:34.638Z,981.2
2022-11-09T05:17:36.437Z,981.2
2022-11-09T05:19:38.285Z,981.3
2022-11-09T05:21:39.990Z,981.2
2022-11-09T05:23:41.245Z,981.2
2022-11-09T05:25:42.159Z,981.2
2022-11-09T05:27:43.747Z,981.3
2022-11-09T05:29:45.090Z,981.2
2022-11-09T05:33:48.224Z,981.1
2022-11-09T05:35:49.397Z,981.1
2022-11-09T05:37:50.925Z,981.1
2022-11-09T05:39:52.404Z,981
2022-11-09T05:41:54.055Z,981.1
2022-11-09T05:43:55.226Z,981
2022-11-09T05:45:56.862Z,981.1
2022-11-09T05:47:58.563Z,981.1
2022-11-09T05:49:59.893Z,981.2
2022-11-09T05:52:01.472Z,981.1
2022-11-09T05:54:03.130Z,981.1
2022-11-09T05:56:04.284Z,981.2
2022-11-09T05:58:05.338Z,981.1
2022-11-09T06:00:10.781Z,981
2022-11-09T06:02:07.451Z,981.1
2022-11-09T06:04:08.710Z,981.1
2022-11-09T06:06:10.168Z,981.1
2022-11-09T06:08:11.275Z,981.1
2022-11-09T06:10:13.043Z,981.1
2022-11-09T06:12:14.421Z,981.2
2022-11-09T06:14:16.309Z,981.2
2022-11-09T06:16:17.827Z,981.3
2022-11-09T06:18:19.625Z,981.3
2022-11-09T06:20:20.703Z,981.3
2022-11-09T06:22:22.151Z,981.2
2022-11-09T06:24:23.751Z,981.2
2022-11-09T06:26:25.045Z,981.2
2022-11-09T06:28:26.071Z,981.2
2022-11-09T06:32:29.448Z,981.2
2022-11-09T06:34:31.034Z,981.2
2022-11-09T06:36:32.218Z,981.2
2022-11-09T06:38:33.887Z,981.3
2022-11-09T06:40:35.562Z,981.4
2022-11-09T06:42:36.936Z,981.3
2022-11-09T06:44:37.944Z,981.3
2022-11-09T06:46:39.080Z,981.3
2022-11-09T06:48:40.039Z,981.4
2022-11-09T06:50:41.379Z,981.4
2022-11-09T06:52:42.623Z,981.4
2022-11-09T06:54:44.006Z,981.5
2022-11-09T06:58:46.128Z,981.5
2022-11-09T07:00:47.254Z,981.6
2022-11-09T07:02:48.756Z,981.6
2022-11-09T07:04:50.214Z,981.7
2022-11-09T07:08:53.845Z,981.9
2022-11-09T07:10:54.916Z,981.9
2022-11-09T07:12:56.427Z,982
2022-11-09T07:14:57.612Z,982.2
2022-11-09T07:16:59.082Z,982.2
2022-11-09T07:19:00.760Z,982.3
2022-11-09T07:21:02.498Z,982.3
2022-11-09T07:23:03.562Z,982.3
2022-11-09T07:25:48.729Z,982.2
2022-11-09T07:27:49.731Z,982.2
2022-11-09T07:29:51.588Z,982
2022-11-09T07:31:52.846Z,982
2022-11-09T07:33:54.246Z,982
2022-11-09T07:35:55.192Z,981.9
2022-11-09T07:37:56.612Z,982.1
2022-11-09T07:39:58.102Z,982
2022-11-09T07:41:59.537Z,982.1
2022-11-09T07:44:01.082Z,982
2022-11-09T07:46:02.687Z,982
2022-11-09T07:48:04.015Z,982
2022-11-09T07:50:05.342Z,981.9
2022-11-09T07:52:06.760Z,981.9
2022-11-09T07:54:07.816Z,982.1
2022-11-09T07:56:08.726Z,982.1
2022-11-09T07:58:09.929Z,982.1
2022-11-09T08:00:11.005Z,982.1
2022-11-09T08:02:12.958Z,982.1
2022-11-09T08:04:14.155Z,982.2
2022-11-09T08:08:16.468Z,982.1
2022-11-09T08:10:17.486Z,982.1
2022-11-09T08:12:19.187Z,982.1
2022-11-09T08:14:20.670Z,982.1
2022-11-09T08:16:22.320Z,982.2
2022-11-09T08:18:24.344Z,982.2
2022-11-09T08:20:25.654Z,982.2
2022-11-09T08:22:26.673Z,982.2
2022-11-09T08:24:28.324Z,982.3
2022-11-09T08:26:29.452Z,982.2
2022-11-09T08:28:31.033Z,982.1
2022-11-09T08:30:32.487Z,982
2022-11-09T08:32:33.963Z,982.1
2022-11-09T08:34:35.463Z,982.1
2022-11-09T08:36:36.560Z,982
2022-11-09T08:38:38.186Z,982.1
2022-11-09T08:40:39.841Z,981.9
2022-11-09T08:42:41.611Z,981.9
2022-11-09T08:44:42.679Z,982.1
2022-11-09T08:46:44.495Z,982
2022-11-09T08:48:45.459Z,981.9
2022-11-09T08:50:47.298Z,981.9
2022-11-09T08:52:48.499Z,981.9
2022-11-09T08:54:49.661Z,981.8
2022-11-09T08:56:51.523Z,981.8
2022-11-09T08:58:52.988Z,981.8
2022-11-09T09:00:53.932Z,981.8
2022-11-09T09:02:55.489Z,981.8
2022-11-09T09:04:57.306Z,981.9
2022-11-09T09:06:58.619Z,981.9
2022-11-09T09:08:59.777Z,981.9
2022-11-09T09:11:01.227Z,981.8
2022-11-09T09:13:02.259Z,981.7
2022-11-09T09:17:05.107Z,981.9
2022-11-09T09:19:06.224Z,981.8
2022-11-09T09:21:07.660Z,981.8
2022-11-09T09:23:08.723Z,981.8
2022-11-09T09:27:11.030Z,981.9
2022-11-09T09:29:12.758Z,982
2022-11-09T09:33:16.144Z,982
2022-11-09T09:35:17.106Z,982
2022-11-09T09:37:18.102Z,982
2022-11-09T09:39:19.138Z,982
2022-11-09T09:41:20.273Z,982.2
2022-11-09T09:43:21.897Z,982.2
2022-11-09T09:45:23.434Z,982.2
2022-11-09T09:47:25.102Z,982.3
2022-11-09T09:49:26.558Z,982.4
2022-11-09T09:51:28.249Z,982.3
2022-11-09T09:53:29.828Z,982.4
2022-11-09T09:55:30.952Z,982.4
2022-11-09T09:57:32.132Z,982.3
2022-11-09T09:59:33.352Z,982.3
2022-11-09T10:01:34.557Z,982.3
2022-11-09T10:03:36.368Z,982.3
2022-11-09T10:05:37.617Z,982.4
2022-11-09T10:07:38.777Z,982.3
2022-11-09T10:09:40.590Z,982.3
2022-11-09T10:11:42.206Z,982.3
2022-11-09T10:13:43.441Z,982.3
2022-11-09T10:15:44.657Z,982.4
2022-11-09T10:17:46.537Z,982.4
2022-11-09T10:19:48.103Z,982.4
2022-11-09T10:21:49.701Z,982.4
2022-11-09T10:26:04.138Z,982.4
2022-11-09T10:27:54.123Z,982.5
2022-11-09T10:29:55.708Z,982.4
2022-11-09T10:31:56.651Z,982.3
2022-11-09T10:33:57.878Z,982.2
2022-11-09T10:36:00.654Z,982.4
2022-11-09T10:38:00.263Z,982.3
2022-11-09T10:40:02.360Z,982.2
2022-11-09T10:42:03.795Z,982.2
2022-11-09T10:44:05.558Z,982.2
2022-11-09T10:46:07.364Z,982.2
2022-11-09T10:48:08.674Z,982.1
2022-11-09T10:50:09.628Z,982.1
2022-11-09T10:52:11.076Z,982.1
2022-11-09T10:54:12.639Z,982
2022-11-09T10:56:19.848Z,982
2022-11-09T10:58:14.866Z,981.9
2022-11-09T11:00:16.439Z,982
2022-11-09T11:02:18.027Z,981.9
2022-11-09T11:04:18.933Z,981.9
2022-11-09T11:06:20.176Z,981.9
2022-11-09T11:08:20.989Z,981.9
2022-11-09T11:10:22.030Z,981.9
2022-11-09T11:12:23.350Z,981.9
2022-11-09T11:14:24.408Z,981.9
2022-11-09T11:16:25.951Z,981.9
2022-11-09T11:18:27.243Z,981.8
2022-11-09T11:20:28.391Z,981.8
2022-11-09T11:22:30.035Z,981.9
2022-11-09T11:24:31.036Z,981.8
2022-11-09T11:26:32.717Z,981.8
2022-11-09T11:28:33.528Z,981.7
2022-11-09T11:30:34.881Z,981.7
2022-11-09T11:32:35.972Z,981.7
2022-11-09T11:34:53.791Z,981.8
2022-11-09T11:36:40.805Z,981.8
2022-11-09T11:38:42.020Z,981.7
2022-11-09T11:40:43.418Z,981.8
2022-11-09T11:42:45.055Z,981.8
2022-11-09T11:44:50.616Z,981.9
2022-11-09T11:46:48.443Z,981.8
2022-11-09T11:50:50.788Z,981.8
2022-11-09T11:52:51.708Z,981.7
2022-11-09T11:56:54.793Z,981.7
2022-11-09T11:58:55.774Z,981.7
2022-11-09T12:00:56.708Z,981.6
2022-11-09T12:02:58.258Z,981.7
2022-11-09T12:04:59.744Z,981.7
2022-11-09T12:07:00.758Z,981.7
2022-11-09T12:09:01.956Z,981.7
2022-11-09T12:11:03.497Z,981.6
2022-11-09T12:13:04.399Z,981.7
2022-11-09T12:15:06.100Z,981.6
2022-11-09T12:17:07.112Z,981.7
2022-11-09T12:19:08.569Z,981.7
2022-11-09T12:21:10.343Z,981.6
2022-11-09T12:23:11.506Z,981.6
2022-11-09T12:25:12.533Z,981.7
2022-11-09T12:27:31.374Z,981.6
2022-11-09T12:29:15.630Z,981.6
2022-11-09T12:31:16.594Z,981.7
2022-11-09T12:33:17.635Z,981.6
2022-11-09T12:35:19.352Z,981.6
2022-11-09T12:37:20.713Z,981.6
2022-11-09T12:39:22.171Z,981.6
2022-11-09T12:41:23.096Z,981.7
2022-11-09T12:43:24.795Z,981.5
2022-11-09T12:45:26.106Z,981.6
2022-11-09T12:47:27.785Z,981.6
2022-11-09T12:49:28.766Z,981.6
2022-11-09T12:51:29.888Z,981.6
2022-11-09T12:53:30.796Z,981.6
2022-11-09T12:55:32.006Z,981.5
2022-11-09T12:57:33.130Z,981.5
2022-11-09T12:59:34.455Z,981.6
2022-11-09T13:01:36.003Z,981.5
2022-11-09T13:03:37.562Z,981.5
2022-11-09T13:05:38.408Z,981.5
2022-11-09T13:07:39.712Z,981.5
2022-11-09T13:09:44.951Z,981.5
2022-11-09T13:11:42.325Z,981.7
2022-11-09T13:13:43.350Z,981.7
2022-11-09T13:15:44.680Z,981.7
2022-11-09T13:17:45.594Z,981.7
2022-11-09T13:19:47.430Z,981.7
2022-11-09T13:21:48.967Z,981.6
2022-11-09T13:24:01.879Z,981.6
2022-11-09T13:25:51.581Z,981.7
2022-11-09T13:27:52.433Z,981.7
2022-11-09T13:29:56.730Z,981.7
2022-11-09T13:31:55.498Z,981.8
2022-11-09T13:33:57.314Z,981.8
2022-11-09T13:37:59.569Z,981.8
2022-11-09T13:40:00.692Z,981.8
2022-11-09T13:42:01.646Z,981.8
2022-11-09T13:44:02.748Z,981.8
2022-11-09T13:46:04.114Z,981.8
2022-11-09T13:48:04.931Z,981.9
2022-11-09T13:50:06.184Z,981.8
2022-11-09T13:52:07.372Z,981.9
2022-11-09T13:54:08.911Z,981.9
2022-11-09T13:56:10.185Z,981.8
2022-11-09T13:58:11.461Z,981.8
2022-11-09T14:00:12.938Z,981.8
2022-11-09T14:02:13.889Z,981.7
2022-11-09T14:04:15.341Z,981.8
2022-11-09T14:06:16.468Z,981.7
2022-11-09T14:08:18.291Z,981.8
2022-11-09T14:11:03.473Z,981.9
2022-11-09T14:13:04.594Z,981.9
2022-11-09T14:15:06.475Z,981.8
2022-11-09T14:17:07.582Z,981.8
2022-11-09T14:19:08.830Z,981.8
2022-11-09T14:21:09.650Z,981.9
2022-11-09T14:23:10.655Z,981.9
2022-11-09T14:25:12.039Z,981.9
2022-11-09T14:27:13.300Z,981.9
2022-11-09T14:29:14.613Z,982
2022-11-09T14:31:16.339Z,982
2022-11-09T14:33:17.966Z,982
2022-11-09T14:35:19.477Z,982
2022-11-09T14:37:21.331Z,982
2022-11-09T14:39:22.748Z,982.1
2022-11-09T14:41:24.468Z,982.1
2022-11-09T14:43:26.239Z,982.1
2022-11-09T14:45:27.384Z,982.2
2022-11-09T14:47:28.513Z,982.2
2022-11-09T14:49:29.745Z,982.2
2022-11-09T14:51:31.027Z,982.1
2022-11-09T14:53:32.005Z,982.2
2022-11-09T14:57:34.370Z,982.1
2022-11-09T14:59:35.436Z,982.2
2022-11-09T15:01:37.020Z,982.2
2022-11-09T15:03:38.612Z,982.3
2022-11-09T15:07:41.437Z,982.3
2022-11-09T15:09:42.678Z,982.2
2022-11-09T15:13:45.427Z,982.3
2022-11-09T15:15:46.480Z,982.3
2022-11-09T15:17:48.161Z,982.3
2022-11-09T15:19:49.067Z,982.2
2022-11-09T15:21:50.827Z,982.3
2022-11-09T15:23:52.662Z,982.3
2022-11-09T15:25:54.008Z,982.3
2022-11-09T15:27:55.160Z,982.3
2022-11-09T15:29:56.462Z,982.3
2022-11-09T15:31:57.360Z,982.3
2022-11-09T15:33:58.266Z,982.3
2022-11-09T15:35:59.259Z,982.3
2022-11-09T15:38:00.516Z,982.3
2022-11-09T15:40:01.972Z,982.3
2022-11-09T15:42:03.549Z,982.3
2022-11-09T15:44:05.385Z,982.3
2022-11-09T15:46:06.458Z,982.3
2022-11-09T15:48:07.891Z,982.3
2022-11-09T15:50:08.905Z,982.3
2022-11-09T15:52:10.724Z,982.4
2022-11-09T15:54:12.140Z,982.4
2022-11-09T15:56:13.953Z,982.3
2022-11-09T15:58:15.624Z,982.4
2022-11-09T16:00:20.688Z,982.4
2022-11-09T16:02:19.348Z,982.4
2022-11-09T16:04:20.393Z,982.4
2022-11-09T16:06:22.251Z,982.4
2022-11-09T16:08:23.795Z,982.4
2022-11-09T16:12:26.500Z,982.4
2022-11-09T16:14:27.876Z,982.5
2022-11-09T16:16:29.411Z,982.4
2022-11-09T16:18:31.351Z,982.4
2022-11-09T16:20:32.535Z,982.4
2022-11-09T16:22:34.166Z,982.4
2022-11-09T16:24:35.911Z,982.5
2022-11-09T16:26:37.442Z,982.4
2022-11-09T16:28:38.431Z,982.6
2022-11-09T16:30:44.142Z,982.4
2022-11-09T16:32:40.779Z,982.5
2022-11-09T16:34:42.643Z,982.5
2022-11-09T16:36:48.907Z,982.6
2022-11-09T16:38:45.036Z,982.4
2022-11-09T16:40:46.403Z,982.7
2022-11-09T16:42:47.470Z,982.6
2022-11-09T16:44:48.937Z,982.6
2022-11-09T16:46:50.688Z,982.7
2022-11-09T16:48:52.227Z,982.7
2022-11-09T16:50:53.550Z,982.7
2022-11-09T16:52:55.412Z,982.6
2022-11-09T16:54:57.186Z,982.7
2022-11-09T16:56:58.633Z,982.8
2022-11-09T16:59:00.505Z,982.8
2022-11-09T17:01:11.254Z,982.8
2022-11-09T17:03:02.540Z,982.8
2022-11-09T17:05:03.886Z,982.9
2022-11-09T17:07:04.863Z,983
2022-11-09T17:09:06.611Z,983
2022-11-09T17:11:08.334Z,983
2022-11-09T17:13:09.251Z,983.2
2022-11-09T17:15:10.173Z,983.2
2022-11-09T17:17:12.032Z,983.2
2022-11-09T17:19:12.942Z,983.3
2022-11-09T17:21:13.978Z,983.3
2022-11-09T17:23:15.665Z,983.3
2022-11-09T17:25:17.510Z,983.4
2022-11-09T17:27:18.566Z,983.4
2022-11-09T17:29:19.685Z,983.4
2022-11-09T17:31:21.402Z,983.5
2022-11-09T17:33:23.215Z,983.5
2022-11-09T17:37:26.365Z,983.5
2022-11-09T17:39:27.780Z,983.5
2022-11-09T17:41:28.767Z,983.5
2022-11-09T17:43:30.080Z,983.5
2022-11-09T17:45:31.892Z,983.5
2022-11-09T17:47:33.178Z,983.6
2022-11-09T17:49:34.881Z,983.6
2022-11-09T17:51:36.187Z,983.6
2022-11-09T17:53:37.172Z,983.6
2022-11-09T17:55:38.665Z,983.7
2022-11-09T17:57:39.833Z,983.7
2022-11-09T17:59:41.694Z,983.7
2022-11-09T18:01:42.728Z,983.7
2022-11-09T18:03:43.896Z,983.8
2022-11-09T18:05:45.122Z,983.7
2022-11-09T18:07:46.795Z,983.8
2022-11-09T18:09:48.063Z,983.8
2022-11-09T18:11:49.704Z,983.8
2022-11-09T18:13:50.727Z,983.8
2022-11-09T18:15:52.480Z,983.8
2022-11-09T18:17:54.406Z,983.8
2022-11-09T18:19:55.660Z,983.9
2022-11-09T18:21:58.495Z,983.9
2022-11-09T18:23:58.698Z,983.9
2022-11-09T18:25:59.630Z,984
2022-11-09T18:28:01.030Z,983.9
2022-11-09T18:30:02.739Z,984
2022-11-09T18:32:04.558Z,984
2022-11-09T18:34:06.055Z,984
2022-11-09T18:36:06.997Z,984
2022-11-09T18:38:19.895Z,984
2022-11-09T18:40:10.375Z,984
2022-11-09T18:42:11.531Z,984.1
2022-11-09T18:44:12.726Z,984.1
2022-11-09T18:46:14.010Z,984.2
2022-11-09T18:48:15.761Z,984.2
2022-11-09T18:50:24.802Z,984.2
2022-11-09T18:52:18.220Z,984.2
2022-11-09T18:54:19.938Z,984.2
2022-11-09T18:56:20.866Z,984.3
2022-11-09T18:58:23.020Z,984.2
2022-11-09T19:02:25.808Z,984.2
2022-11-09T19:04:27.375Z,984.3
2022-11-09T19:06:29.058Z,984.3
2022-11-09T19:08:29.946Z,984.3
2022-11-09T19:10:31.690Z,984.4
2022-11-09T19:12:33.235Z,984.4
2022-11-09T19:14:34.379Z,984.3
2022-11-09T19:16:35.315Z,984.4
2022-11-09T19:18:36.425Z,984.2
2022-11-09T19:20:38.033Z,984.4
2022-11-09T19:22:39.318Z,984.4
2022-11-09T19:24:41.229Z,984.5
2022-11-09T19:26:42.926Z,984.5
2022-11-09T19:28:44.448Z,984.4
2022-11-09T19:30:45.674Z,984.4
2022-11-09T19:32:46.913Z,984.5
2022-11-09T19:34:48.265Z,984.4
2022-11-09T19:36:49.260Z,984.5
2022-11-09T19:38:50.400Z,984.5
2022-11-09T19:40:52.193Z,984.6
2022-11-09T19:42:53.675Z,984.6
2022-11-09T19:44:56.547Z,984.5
2022-11-09T19:46:55.483Z,984.6
2022-11-09T19:48:56.503Z,984.6
2022-11-09T19:50:57.584Z,984.6
2022-11-09T19:52:59.242Z,984.7
2022-11-09T19:55:01.100Z,984.7
2022-11-09T19:57:02.908Z,984.8
2022-11-09T19:59:04.517Z,984.7
2022-11-09T20:01:05.994Z,984.9
2022-11-09T20:03:07.232Z,984.8
2022-11-09T20:07:09.289Z,984.9
2022-11-09T20:09:10.653Z,984.8
2022-11-09T20:11:11.786Z,984.9
2022-11-09T20:13:13.036Z,984.9
2022-11-09T20:15:14.468Z,984.9
2022-11-09T20:17:15.630Z,984.9
2022-11-09T20:19:16.755Z,985
2022-11-09T20:21:18.799Z,985
2022-11-09T20:23:21.660Z,985
2022-11-09T20:25:21.418Z,985.1
2022-11-09T20:27:22.909Z,985.1
2022-11-09T20:29:24.374Z,985
2022-11-09T20:31:25.471Z,985.1
2022-11-09T20:33:26.986Z,985.3
2022-11-09T20:35:28.544Z,985.4
2022-11-09T20:37:29.547Z,985.4
2022-11-09T20:39:30.763Z,985.4
2022-11-09T20:41:31.877Z,985.5
2022-11-09T20:43:33.574Z,985.5
2022-11-09T20:45:35.238Z,985.5
2022-11-09T20:48:03.142Z,985.4
2022-11-09T20:49:37.815Z,985.5
2022-11-09T20:51:39.248Z,985.6
2022-11-09T20:53:41.191Z,985.5
2022-11-09T20:55:42.207Z,985.6
2022-11-09T20:58:27.335Z,985.6
2022-11-09T21:00:28.546Z,985.6
2022-11-09T21:02:30.395Z,985.6
2022-11-09T21:04:31.861Z,985.6
2022-11-09T21:06:33.385Z,985.6
2022-11-09T21:08:35.056Z,985.8
2022-11-09T21:10:36.783Z,985.7
2022-11-09T21:12:46.885Z,985.8
2022-11-09T21:14:39.016Z,985.7
2022-11-09T21:16:40.489Z,985.8
2022-11-09T21:18:41.446Z,985.8
2022-11-09T21:20:42.961Z,985.8
2022-11-09T21:22:44.207Z,985.9
2022-11-09T21:26:47.455Z,985.9
2022-11-09T21:28:48.540Z,985.9
2022-11-09T21:30:50.302Z,985.9
2022-11-09T21:32:51.647Z,986
2022-11-09T21:34:53.396Z,986
2022-11-09T21:36:55.317Z,986.1
2022-11-09T21:38:56.220Z,986.1
2022-11-09T21:40:57.519Z,986.1
2022-11-09T21:42:59.380Z,986.2
2022-11-09T21:45:00.355Z,986.1
2022-11-09T21:47:01.806Z,986.1
2022-11-09T21:49:03.198Z,986.1
2022-11-09T21:51:04.547Z,986.2
2022-11-09T21:53:05.533Z,986.2
2022-11-09T21:55:06.741Z,986.1
2022-11-09T21:57:08.615Z,986.2
2022-11-09T21:59:09.716Z,986.2
2022-11-09T22:01:11.286Z,986.2
2022-11-09T22:03:12.346Z,986.2
2022-11-09T22:05:14.963Z,986.1
2022-11-09T22:07:14.835Z,986.2
2022-11-09T22:09:15.657Z,986.1
2022-11-09T22:11:17.052Z,986.1
2022-11-09T22:13:18.169Z,986.2
2022-11-09T22:15:19.959Z,986.2
2022-11-09T22:17:21.345Z,986.3
2022-11-09T22:19:22.635Z,986.4
2022-11-09T22:21:24.481Z,986.5
2022-11-09T22:25:27.108Z,986.4
2022-11-09T22:27:28.356Z,986.3
2022-11-09T22:29:30.123Z,986.5
2022-11-09T22:31:31.618Z,986.4
2022-11-09T22:33:33.593Z,986.5
2022-11-09T22:35:34.374Z,986.4
2022-11-09T22:37:35.425Z,986.5
2022-11-09T22:39:36.896Z,986.6
2022-11-09T22:41:38.470Z,986.6
2022-11-09T22:43:39.522Z,986.7
2022-11-09T22:45:41.397Z,986.6
2022-11-09T22:47:43.112Z,986.7
2022-11-09T22:49:44.301Z,986.7
2022-11-09T22:51:45.672Z,986.7
2022-11-09T22:53:46.729Z,986.8
2022-11-09T22:55:47.891Z,986.8
2022-11-09T22:57:49.634Z,986.8
2022-11-09T23:01:52.285Z,987
2022-11-09T23:03:53.855Z,987.1
2022-11-09T23:05:55.144Z,987.1
2022-11-09T23:07:56.082Z,987.2
2022-11-09T23:09:56.999Z,987.1
2022-11-09T23:11:58.066Z,987.1
2022-11-09T23:13:59.696Z,987.2
2022-11-09T23:16:01.103Z,987.2
2022-11-09T23:18:02.099Z,987.3
2022-11-09T23:20:03.138Z,987.3
2022-11-09T23:22:04.353Z,987.3
2022-11-09T23:24:06.228Z,987.3
2022-11-09T23:26:07.401Z,987.3
2022-11-09T23:28:08.572Z,987.4
2022-11-09T23:30:10.222Z,987.4
2022-11-09T23:32:12.159Z,987.4
2022-11-09T23:34:13.286Z,987.5
2022-11-09T23:36:14.397Z,987.5
2022-11-09T23:38:15.943Z,987.5
2022-11-09T23:40:17.172Z,987.5
2022-11-09T23:42:18.131Z,987.5
2022-11-09T23:44:19.789Z,987.5
2022-11-09T23:46:21.131Z,987.5
2022-11-09T23:50:23.910Z,987.5
2022-11-09T23:52:25.653Z,987.5
2022-11-09T23:54:26.858Z,987.5
2022-11-09T23:56:28.043Z,987.6
2022-11-09T23:58:29.494Z,987.6
